Главная страница
METAR-TAF:

METAR-TAF

Аэропорты :

Трольхеттан-Венерсборг, Швеция

широта: 58-19N, долгота: 012-21E, высота над уровнем моря: 41 м

Текущие метеонаблюдения

Эта сводка был подготовлена 34 минут назад, в 10:20 UTC
Ветер 13 Узел от южный
Температура 15°C
Влажность 88%
Давление 995 hPa
Видимость 10 км и более
Рассеянная облачность на высоте 1600 фута

METAR: ESGT 241020Z 18013KT 9999 BKN016 15/13 Q0995

Время: 12:54 (10:54 UTC)

Прогноз

Эта сводка был подготовлена 2 часа и 24 минут назад, в 08:30 UTC
Прогноз действительный с 24-го 09 UTC до 24-го 14 UTC
Ветер 16 Узел от южный с порывами до 28 Узел
Видимость 10 км и более
Нет облачности ниже 1500 м, и нет кучево-дождевой облачности
временами
С 24-го 09 UTC до 24-го 12 UTC
Рассеянная облачность на высоте 1400 фута
Рассеянная облачность на высоте 3000 фута, Кучево-дождевые.
ливневые дожди

TAF: ESGT 240830Z 2409/2414 17016G28KT CAVOK TEMPO 2409/2412 SHRA BKN014 BKN030CB

Метеонаблюдения и прогнозы для более 4000 аэропортов (сводки METAR и TAF).

Имеющиеся станции представлены на карте желтыми и красными точками.

Чтобы увидеть название станции, наведите на нее мышь.

Затем щелкните, чтобы увидеть метеонаблюдения и метеопрогнозы.

Управление картой: чтобы увеличить масштаб, щелкните зеленые кнопки с черным крестиком; чтобы уменьшить масштаб, щелкните зеленую кнопку с тире; для просмотра соседних карт щелкайте зеленые стрелки.


METAR-TAF: